Time;durP1;ratioP1;P1;durP2;ratioP2;P2;SDS_P1;SDS_P2;PMS_P1;PMS_P2;Temp;Humidity;BMP_temperature;BMP_pressure;BME280_temperature;BME280_humidity;BME280_pressure;Samples;Min_cycle;Max_cycle;Signal;HPM_P1;HPM_P2
2022/09/05 00:00:06;;;;;;;871.28;810.40;;;;;;;20.81;41.60;101975.50;680316;28;138033;-61
2022/09/05 00:00:38;;;;;;;871.83;810.95;;;;;;;20.80;41.42;101974.66;680709;28;127982;-61
2022/09/05 00:01:04;;;;;;;875.15;814.15;;;;;;;20.82;41.39;101974.44;682583;28;69458;-61
2022/09/05 00:01:31;;;;;;;878.13;817.10;;;;;;;20.82;41.44;101977.19;682781;28;137595;-61
2022/09/05 00:02:36;;;;;;;835.25;775.38;;;;;;;20.82;41.49;101977.19;683395;28;138068;-61
2022/09/05 00:03:06;;;;;;;846.97;786.78;;;;;;;20.80;41.29;101971.06;676340;29;160490;-61
2022/09/05 00:03:33;;;;;;;886.00;824.80;;;;;;;20.78;41.35;101976.75;683585;28;137793;-61
2022/09/05 00:04:04;;;;;;;870.50;809.65;;;;;;;20.80;41.36;101971.91;685457;28;137754;-60
2022/09/05 00:04:30;;;;;;;867.42;806.25;;;;;;;20.80;41.36;101971.91;684712;28;160719;-60
2022/09/05 00:05:01;;;;;;;914.00;851.95;;;;;;;20.81;41.46;101981.81;685553;28;137914;-60
2022/09/05 00:05:47;;;;;;;845.70;785.58;;;;;;;20.81;41.18;101976.31;688335;28;61320;-61
2022/09/05 00:06:10;;;;;;;847.70;787.47;;;;;;;20.80;41.37;101979.28;685573;28;137820;-61
2022/09/05 00:06:33;;;;;;;874.25;813.25;;;;;;;20.75;41.36;101966.19;688127;28;67575;-61
2022/09/05 00:07:00;;;;;;;869.58;808.53;;;;;;;20.74;41.50;101969.19;686661;28;69537;-62
2022/09/05 00:07:26;;;;;;;851.80;791.05;;;;;;;20.76;41.32;101976.13;684859;28;160826;-60
2022/09/05 00:07:54;;;;;;;894.50;833.00;;;;;;;20.75;41.28;101971.69;685626;28;135926;-60
2022/09/05 00:08:20;;;;;;;854.72;794.28;;;;;;;20.76;41.43;101975.31;685360;28;136413;-61
2022/09/05 00:08:54;;;;;;;836.42;776.58;;;;;;;20.74;41.50;101966.44;685507;28;138156;-61
2022/09/05 00:09:19;;;;;;;896.83;835.13;;;;;;;20.74;41.32;101963.72;685321;28;138407;-61
2022/09/05 00:09:58;;;;;;;875.60;814.60;;;;;;;20.74;41.40;101971.94;686436;28;115933;-61
2022/09/05 00:10:25;;;;;;;869.17;808.30;;;;;;;20.73;41.45;101968.31;685073;28;137665;-60
2022/09/05 00:10:53;;;;;;;850.20;789.88;;;;;;;20.75;41.36;101971.69;685950;28;137833;-61
2022/09/05 00:11:18;;;;;;;823.00;763.33;;;;;;;20.74;41.65;101966.44;685793;28;138067;-60
2022/09/05 00:11:42;;;;;;;841.05;781.00;;;;;;;20.75;41.46;101968.94;685811;28;137836;-61
2022/09/05 00:12:05;;;;;;;902.30;840.50;;;;;;;20.74;41.46;101967.28;685391;28;134734;-61
2022/09/05 00:12:30;;;;;;;901.90;840.08;;;;;;;20.69;41.60;101956.94;688572;28;70451;-61
2022/09/05 00:12:55;;;;;;;880.88;819.60;;;;;;;20.73;41.49;101968.31;687024;28;114512;-61
2022/09/05 00:13:20;;;;;;;859.88;799.28;;;;;;;20.73;41.40;101973.00;686824;28;115398;-61
2022/09/05 00:13:44;;;;;;;889.63;828.15;;;;;;;20.72;41.58;101965.81;686965;28;114406;-61
2022/09/05 00:14:29;;;;;;;850.55;790.20;;;;;;;20.71;41.50;101967.72;687883;28;92296;-62
2022/09/05 00:15:13;;;;;;;864.28;803.45;;;;;;;20.67;41.53;101964.56;685572;28;137386;-62
2022/09/05 00:15:39;;;;;;;864.22;803.45;;;;;;;20.66;41.55;101970.28;687615;28;96486;-61
2022/09/05 00:16:16;;;;;;;893.45;831.85;;;;;;;20.65;41.68;101968.56;687531;28;99196;-62
2022/09/05 00:16:54;;;;;;;859.40;798.80;;;;;;;20.65;41.54;101971.31;683570;28;138308;-62
2022/09/05 00:17:22;;;;;;;850.42;789.83;;;;;;;20.62;41.67;101968.97;681900;28;156445;-62
2022/09/05 00:17:54;;;;;;;886.97;825.60;;;;;;;20.62;41.70;101972.53;683628;28;137938;-62
2022/09/05 00:18:46;;;;;;;866.50;805.70;;;;;;;20.63;41.79;101967.91;683445;28;138156;-62
2022/09/05 00:19:11;;;;;;;844.17;784.05;;;;;;;20.63;41.75;101968.75;683574;28;135995;-62
2022/09/05 00:19:38;;;;;;;856.42;795.88;;;;;;;20.62;41.74;101972.53;684038;28;113581;-62
2022/09/05 00:20:06;;;;;;;905.83;843.80;;;;;;;20.63;41.84;101976.16;683309;28;137780;-62
2022/09/05 00:20:36;;;;;;;846.58;786.40;;;;;;;20.60;41.46;101974.66;682856;28;159200;-62
2022/09/05 00:21:02;;;;;;;834.35;774.45;;;;;;;20.61;41.89;101970.00;683442;28;137860;-62
2022/09/05 00:21:34;;;;;;;831.00;771.25;;;;;;;20.59;41.78;101972.13;683562;28;138572;-61
2022/09/05 00:22:03;;;;;;;870.90;810.05;;;;;;;20.56;41.83;101970.66;682104;28;160990;-62
2022/09/05 00:22:39;;;;;;;908.70;846.72;;;;;;;20.58;41.92;101975.94;682957;28;157742;-62
2022/09/05 00:23:06;;;;;;;845.75;785.70;;;;;;;20.55;41.83;101968.13;687484;28;162153;-62
2022/09/05 00:23:34;;;;;;;837.13;777.42;;;;;;;20.53;41.97;101974.69;688778;28;137693;-61
2022/09/05 00:24:13;;;;;;;844.83;784.88;;;;;;;20.48;41.90;101963.47;688729;28;136334;-62
2022/09/05 00:24:51;;;;;;;851.03;790.83;;;;;;;20.52;41.81;101977.66;686256;28;135810;-62
2022/09/05 00:25:22;;;;;;;863.45;802.75;;;;;;;20.50;41.79;101974.25;683577;28;137538;-62
2022/09/05 00:26:02;;;;;;;890.65;829.28;;;;;;;20.51;42.03;101967.72;682606;28;161477;-62
2022/09/05 00:26:33;;;;;;;848.47;788.28;;;;;;;20.52;41.97;101980.38;683352;28;136006;-62
2022/09/05 00:26:59;;;;;;;889.88;828.35;;;;;;;20.51;42.03;101974.03;682352;28;137785;-62
2022/09/05 00:27:25;;;;;;;843.22;782.80;;;;;;;20.52;42.14;101974.91;683132;28;138099;-62
2022/09/05 00:27:55;;;;;;;898.50;836.78;;;;;;;20.51;42.07;101978.69;688302;28;108980;-62
2022/09/05 00:28:21;;;;;;;862.45;801.70;;;;;;;20.49;41.95;101981.66;688673;28;137543;-62
2022/09/05 00:28:48;;;;;;;851.67;791.38;;;;;;;20.50;41.84;101971.50;688828;28;137684;-62
2022/09/05 00:29:17;;;;;;;857.45;796.92;;;;;;;20.52;41.96;101977.66;688071;28;161009;-62
2022/09/05 00:29:52;;;;;;;871.08;810.13;;;;;;;20.52;41.78;101981.22;688906;28;136209;-62
2022/09/05 00:30:15;;;;;;;885.10;823.85;;;;;;;20.52;41.96;101983.13;688983;28;138174;-62
2022/09/05 00:30:40;;;;;;;860.53;799.90;;;;;;;20.52;41.90;101981.22;691454;28;67462;-62
2022/09/05 00:31:25;;;;;;;863.35;802.65;;;;;;;20.51;41.88;101975.94;686672;28;138166;-62
2022/09/05 00:31:55;;;;;;;875.15;814.17;;;;;;;20.51;42.13;101982.28;685557;28;137712;-62
2022/09/05 00:32:24;;;;;;;845.25;785.05;;;;;;;20.51;42.03;101985.00;683091;28;161261;-62
2022/09/05 00:33:00;;;;;;;871.15;810.28;;;;;;;20.51;42.07;101979.53;683588;28;137820;-62
2022/09/05 00:33:30;;;;;;;865.35;804.67;;;;;;;20.51;41.83;101985.00;683522;28;137817;-62
2022/09/05 00:34:03;;;;;;;850.67;790.35;;;;;;;20.52;42.00;101983.13;682621;28;160573;-62
2022/09/05 00:34:57;;;;;;;889.80;828.35;;;;;;;20.52;41.99;101981.22;683559;28;135969;-62
2022/09/05 00:35:33;;;;;;;829.78;769.92;;;;;;;20.51;41.89;101982.28;679747;28;160617;-62
2022/09/05 00:36:05;;;;;;;863.70;803.00;;;;;;;20.50;42.20;101983.34;683683;28;135981;-62
2022/09/05 00:36:33;;;;;;;893.45;831.97;;;;;;;20.48;42.04;101982.69;686283;28;136108;-62
2022/09/05 00:36:55;;;;;;;864.40;803.63;;;;;;;20.48;42.16;101981.84;684942;28;136283;-62
2022/09/05 00:37:31;;;;;;;842.92;782.55;;;;;;;20.45;42.37;101983.13;689307;28;46592;-62
2022/09/05 00:37:52;;;;;;;850.83;790.55;;;;;;;20.45;42.47;101979.53;686292;28;137342;-60
2022/09/05 00:38:16;;;;;;;846.33;786.20;;;;;;;20.45;42.44;101980.38;689911;28;22381;-62
2022/09/05 00:38:40;;;;;;;867.97;807.05;;;;;;;20.45;42.27;101982.28;687687;28;90856;-62
2022/09/05 00:39:06;;;;;;;869.95;809.15;;;;;;;20.46;42.44;101983.97;687865;28;92295;-62
2022/09/05 00:39:31;;;;;;;856.45;795.95;;;;;;;20.43;42.56;101978.91;683539;28;137975;-62
2022/09/05 00:39:56;;;;;;;846.42;786.33;;;;;;;20.43;42.52;101990.72;684376;28;114924;-62
2022/09/05 00:40:26;;;;;;;889.08;827.70;;;;;;;20.45;42.61;101988.59;684081;28;115660;-62
2022/09/05 00:40:49;;;;;;;870.00;808.97;;;;;;;20.44;42.77;101980.59;684113;28;137926;-62
2022/09/05 00:41:12;;;;;;;843.45;783.47;;;;;;;20.47;42.52;101988.41;686290;28;46315;-62
2022/09/05 00:41:33;;;;;;;847.95;787.83;;;;;;;20.47;42.71;101985.66;685554;28;67505;-61
2022/09/05 00:41:58;;;;;;;857.53;797.13;;;;;;;20.46;42.43;101982.06;685646;28;46186;-62
2022/09/05 00:42:21;;;;;;;881.65;820.63;;;;;;;20.43;42.74;101981.66;685448;28;116233;-62
2022/09/05 00:42:43;;;;;;;858.10;797.70;;;;;;;20.41;42.81;101983.78;688676;28;45330;-61
2022/09/05 00:43:09;;;;;;;906.17;844.28;;;;;;;20.41;42.85;101981.03;686014;28;67352;-62
2022/09/05 00:43:33;;;;;;;890.05;828.60;;;;;;;20.40;42.83;101976.59;686773;28;114930;-62
2022/09/05 00:43:58;;;;;;;853.00;792.50;;;;;;;20.38;42.98;101976.81;686233;28;60768;-62
2022/09/05 00:44:23;;;;;;;858.20;797.60;;;;;;;20.37;42.86;101988.84;687957;28;67283;-62
2022/09/05 00:44:49;;;;;;;879.33;818.13;;;;;;;20.34;43.10;101987.38;686225;28;115193;-61
2022/09/05 00:45:15;;;;;;;889.10;827.80;;;;;;;20.33;43.17;101984.84;685692;28;114921;-61
2022/09/05 00:45:42;;;;;;;835.85;776.05;;;;;;;20.32;43.08;101980.41;683593;28;136392;-61
2022/09/05 00:46:09;;;;;;;828.42;768.72;;;;;;;20.30;43.31;101985.25;684257;28;137727;-62
2022/09/05 00:46:32;;;;;;;875.58;814.65;;;;;;;20.30;43.25;101988.00;687581;28;98635;-62
2022/09/05 00:46:59;;;;;;;909.60;847.60;;;;;;;20.29;43.38;101989.06;688835;28;69239;-62
2022/09/05 00:47:28;;;;;;;880.80;819.42;;;;;;;20.27;43.29;101989.25;689052;28;137565;-62
2022/09/05 00:47:54;;;;;;;847.78;787.63;;;;;;;20.27;43.50;101986.53;688740;28;136218;-62
2022/09/05 00:48:22;;;;;;;840.17;780.05;;;;;;;20.28;43.35;101987.34;689305;28;115153;-61
2022/09/05 00:48:48;;;;;;;857.28;796.65;;;;;;;20.27;43.53;101991.19;689659;28;136050;-61
2022/09/05 00:49:18;;;;;;;859.13;798.60;;;;;;;20.27;43.61;101988.44;688990;28;137752;-61
2022/09/05 00:49:43;;;;;;;909.63;847.55;;;;;;;20.27;43.54;101989.25;688286;28;137406;-60
2022/09/05 00:50:08;;;;;;;863.03;802.50;;;;;;;20.28;43.57;101987.34;689460;28;114859;-60
2022/09/05 00:50:36;;;;;;;844.55;784.58;;;;;;;20.26;43.65;101989.47;689626;28;114975;-61
2022/09/05 00:51:10;;;;;;;890.35;828.97;;;;;;;20.24;43.55;101984.19;688485;28;138822;-60
2022/09/05 00:51:34;;;;;;;851.55;791.25;;;;;;;20.28;43.46;101992.84;688897;28;137817;-60
2022/09/05 00:52:00;;;;;;;892.35;830.97;;;;;;;20.28;43.65;101993.72;690676;28;69476;-61
2022/09/05 00:52:26;;;;;;;871.13;810.33;;;;;;;20.30;43.44;101996.25;688983;28;138137;-61
2022/09/05 00:52:56;;;;;;;872.53;811.65;;;;;;;20.30;43.59;101993.50;688712;28;136955;-61
2022/09/05 00:53:20;;;;;;;869.80;808.90;;;;;;;20.30;43.69;101991.59;688998;28;137717;-61
2022/09/05 00:53:49;;;;;;;852.35;791.95;;;;;;;20.31;43.52;101990.53;692207;28;113517;-61
2022/09/05 00:54:31;;;;;;;848.30;788.08;;;;;;;20.32;43.62;101997.69;691587;28;136074;-61
2022/09/05 00:55:02;;;;;;;900.58;838.80;;;;;;;20.32;43.57;101992.22;691397;28;137662;-61
2022/09/05 00:55:29;;;;;;;874.92;814.00;;;;;;;20.31;43.44;101989.69;691739;28;137892;-61
2022/09/05 00:55:56;;;;;;;843.05;783.05;;;;;;;20.31;43.41;101996.03;691661;28;136203;-59
2022/09/05 00:56:30;;;;;;;844.10;784.03;;;;;;;20.33;43.47;101990.34;694262;28;61731;-60
2022/09/05 00:57:02;;;;;;;922.55;860.08;;;;;;;20.33;43.45;101998.56;690819;28;136121;-61
2022/09/05 00:57:46;;;;;;;866.40;805.65;;;;;;;20.32;43.34;101994.94;691546;28;135843;-60
2022/09/05 00:58:28;;;;;;;855.20;794.92;;;;;;;20.33;43.37;101993.06;691501;28;136784;-61
2022/09/05 00:59:24;;;;;;;852.67;792.50;;;;;;;20.37;43.43;101993.47;688865;28;135973;-60
2022/09/05 01:00:04;;;;;;;872.40;811.80;;;;;;;20.35;43.29;101994.53;688776;28;137657;-61
2022/09/05 01:00:34;;;;;;;865.92;805.38;;;;;;;20.35;43.09;101990.94;688902;28;137266;-61
2022/09/05 01:00:57;;;;;;;892.28;830.75;;;;;;;20.34;43.31;101998.34;688749;28;136192;-61
2022/09/05 01:01:26;;;;;;;877.80;816.67;;;;;;;20.35;43.28;101994.53;691184;28;70445;-60
2022/09/05 01:01:55;;;;;;;837.83;777.95;;;;;;;20.33;43.28;101993.91;688144;28;137806;-61
2022/09/05 01:02:23;;;;;;;829.33;769.58;;;;;;;20.34;43.31;101994.75;693181;28;161413;-60
2022/09/05 01:02:57;;;;;;;825.28;765.80;;;;;;;20.33;43.32;101993.06;694426;28;136668;-60
2022/09/05 01:03:41;;;;;;;898.15;836.53;;;;;;;20.31;43.33;101992.41;694162;28;137706;-60
2022/09/05 01:04:27;;;;;;;871.53;810.50;;;;;;;20.30;43.53;101998.97;693985;28;137124;-61
2022/09/05 01:04:53;;;;;;;890.80;829.08;;;;;;;20.27;43.38;101989.25;685347;28;137337;-58
2022/09/05 01:05:23;;;;;;;916.75;854.25;;;;;;;20.28;43.31;101990.97;688833;28;136271;-59
2022/09/05 01:05:53;;;;;;;868.33;807.40;;;;;;;20.28;43.17;101993.72;688775;28;137655;-61
2022/09/05 01:06:19;;;;;;;869.67;808.58;;;;;;;20.28;43.20;102001.06;688785;28;137762;-60
2022/09/05 01:06:51;;;;;;;906.50;844.38;;;;;;;20.29;43.22;101989.88;690374;28;138136;-61
2022/09/05 01:07:34;;;;;;;869.90;808.63;;;;;;;20.27;43.22;101986.53;690987;28;129090;-61
2022/09/05 01:08:19;;;;;;;868.45;807.50;;;;;;;20.28;43.29;101998.31;691503;28;138577;-61
2022/09/05 01:08:50;;;;;;;870.00;808.92;;;;;;;20.27;43.36;102000.25;691513;28;136201;-60
2022/09/05 01:09:29;;;;;;;869.95;808.92;;;;;;;20.24;43.25;101991.59;691663;28;135664;-60
2022/09/05 01:10:02;;;;;;;874.05;812.83;;;;;;;20.23;43.38;101995.38;691374;28;136410;-59
2022/09/05 01:10:30;;;;;;;878.03;816.70;;;;;;;20.24;43.40;101999.81;690471;28;158903;-61
2022/09/05 01:10:56;;;;;;;894.60;832.92;;;;;;;20.22;43.32;101994.56;691562;28;136269;-60
2022/09/05 01:11:32;;;;;;;862.83;801.97;;;;;;;20.25;43.04;102001.50;691667;28;138133;-61
2022/09/05 01:12:06;;;;;;;870.58;809.58;;;;;;;20.23;43.16;101998.13;688059;28;137444;-61
2022/09/05 01:12:39;;;;;;;891.72;830.13;;;;;;;20.23;43.03;101998.13;689087;28;136012;-61
2022/09/05 01:13:11;;;;;;;862.42;801.63;;;;;;;20.22;43.44;101999.16;689058;28;135994;-61
2022/09/05 01:13:40;;;;;;;864.55;803.75;;;;;;;20.22;43.21;102001.91;690562;28;137693;-61
2022/09/05 01:14:10;;;;;;;866.95;805.90;;;;;;;20.21;43.03;101998.34;688659;28;137193;-62
2022/09/05 01:14:43;;;;;;;913.85;851.45;;;;;;;20.19;42.99;101999.59;689077;28;134333;-61
2022/09/05 01:15:21;;;;;;;871.38;810.40;;;;;;;20.22;43.06;101994.56;691470;28;62382;-61
2022/09/05 01:15:48;;;;;;;825.22;765.63;;;;;;;20.21;43.17;102003.81;688775;28;137693;-61
2022/09/05 01:16:20;;;;;;;880.05;818.75;;;;;;;20.20;43.10;101998.56;689368;28;137785;-61
2022/09/05 01:17:03;;;;;;;903.97;842.13;;;;;;;20.12;43.05;101988.63;688903;28;137984;-61
2022/09/05 01:17:34;;;;;;;853.78;793.08;;;;;;;20.16;43.02;101990.75;687395;28;157420;-61
2022/09/05 01:18:16;;;;;;;854.88;794.40;;;;;;;20.16;43.07;102001.72;689592;28;137362;-61
2022/09/05 01:18:47;;;;;;;906.22;844.17;;;;;;;20.19;43.12;102005.94;688335;28;135743;-62
2022/09/05 01:19:14;;;;;;;880.60;819.17;;;;;;;20.19;43.08;101996.84;691251;28;136375;-62
2022/09/05 01:19:49;;;;;;;898.75;836.83;;;;;;;20.16;43.18;101995.41;691342;28;137802;-62
2022/09/05 01:20:28;;;;;;;874.83;813.60;;;;;;;20.19;43.02;101999.59;691459;28;137525;-62
2022/09/05 01:21:10;;;;;;;865.55;804.75;;;;;;;20.19;43.16;102003.19;691588;28;135796;-62
2022/09/05 01:21:40;;;;;;;919.83;857.30;;;;;;;20.18;43.05;101998.75;689009;28;137402;-62
2022/09/05 01:22:20;;;;;;;873.63;812.45;;;;;;;20.16;42.97;101998.97;687571;28;136222;-62
2022/09/05 01:23:02;;;;;;;915.10;852.65;;;;;;;20.16;42.81;101998.13;687917;28;160742;-62
2022/09/05 01:23:51;;;;;;;862.53;801.75;;;;;;;20.16;42.82;102007.19;688792;28;136839;-61
2022/09/05 01:24:36;;;;;;;924.78;862.08;;;;;;;20.14;42.96;102000.22;688593;28;136021;-62
2022/09/05 01:25:11;;;;;;;910.20;848.00;;;;;;;20.11;42.87;101997.91;688697;28;135781;-62
2022/09/05 01:25:43;;;;;;;907.75;845.53;;;;;;;20.10;42.93;102004.47;688991;28;137750;-62
2022/09/05 01:26:20;;;;;;;887.23;825.67;;;;;;;20.09;42.98;101995.38;688718;28;137563;-62
2022/09/05 01:27:20;;;;;;;903.92;842.03;;;;;;;20.07;42.88;101994.75;688897;28;137568;-62
2022/09/05 01:27:50;;;;;;;909.75;847.45;;;;;;;20.02;42.92;101999.19;689618;28;156240;-62
2022/09/05 01:28:17;;;;;;;919.72;857.05;;;;;;;19.99;43.00;101989.47;694204;28;137333;-61
2022/09/05 01:28:41;;;;;;;877.92;816.63;;;;;;;19.98;43.08;101996.84;694339;28;138097;-61
2022/09/05 01:29:05;;;;;;;911.65;849.35;;;;;;;19.96;42.99;101996.19;694905;28;115584;-63
2022/09/05 01:29:33;;;;;;;940.53;877.25;;;;;;;19.95;43.15;101997.28;696622;28;8548;-62
2022/09/05 01:29:57;;;;;;;879.22;818.03;;;;;;;19.95;43.08;101991.78;691599;28;137777;-63
2022/09/05 01:30:20;;;;;;;884.05;822.55;;;;;;;19.95;42.99;102000.03;692946;28;91716;-62
2022/09/05 01:30:47;;;;;;;944.30;881.00;;;;;;;19.97;42.92;101994.31;693126;28;92325;-63
2022/09/05 01:31:14;;;;;;;899.42;837.53;;;;;;;19.98;43.05;101996.84;691458;28;137424;-63
2022/09/05 01:31:40;;;;;;;855.50;794.90;;;;;;;19.98;43.10;101994.13;691552;28;138016;-62
2022/09/05 01:32:17;;;;;;;841.40;781.15;;;;;;;19.95;42.63;101996.41;690500;28;161158;-62
2022/09/05 01:32:45;;;;;;;845.60;785.22;;;;;;;19.93;42.98;101995.78;692517;28;138131;-62
2022/09/05 01:33:13;;;;;;;855.05;794.45;;;;;;;19.92;43.08;101991.34;691457;28;136262;-62
2022/09/05 01:33:43;;;;;;;905.30;843.22;;;;;;;19.93;43.18;102001.28;691550;28;136208;-61
2022/09/05 01:34:13;;;;;;;852.33;791.85;;;;;;;19.92;43.10;101999.56;691158;28;137514;-62
2022/09/05 01:34:45;;;;;;;864.63;803.78;;;;;;;19.92;43.34;101996.81;691097;28;138243;-62
2022/09/05 01:35:34;;;;;;;918.85;856.45;;;;;;;19.90;43.07;101997.03;690835;28;137583;-62
2022/09/05 01:36:06;;;;;;;864.33;803.65;;;;;;;19.92;43.02;101997.69;691305;28;136105;-61
2022/09/05 01:36:48;;;;;;;903.00;841.30;;;;;;;19.91;42.92;101990.50;690742;28;161152;-62
2022/09/05 01:37:13;;;;;;;862.78;801.75;;;;;;;19.89;43.13;101989.03;689394;28;156025;-62
2022/09/05 01:37:40;;;;;;;866.42;805.47;;;;;;;19.86;42.91;101994.91;695510;28;92231;-62
2022/09/05 01:38:05;;;;;;;860.78;800.08;;;;;;;19.87;42.96;101999.34;694047;28;136806;-63
2022/09/05 01:38:33;;;;;;;865.03;804.13;;;;;;;19.85;43.25;101996.00;693969;28;138168;-62
2022/09/05 01:39:01;;;;;;;895.72;833.88;;;;;;;19.85;43.24;101996.81;693891;28;138334;-62
2022/09/05 01:39:30;;;;;;;843.53;783.28;;;;;;;19.85;43.13;102001.47;688839;28;138076;-62
2022/09/05 01:40:00;;;;;;;875.30;814.15;;;;;;;19.87;43.19;102002.09;688807;28;136162;-62
2022/09/05 01:40:26;;;;;;;869.85;808.60;;;;;;;19.84;43.43;101989.66;690595;28;138497;-62
2022/09/05 01:40:52;;;;;;;863.50;802.70;;;;;;;19.86;43.10;101997.66;690535;28;136454;-62
2022/09/05 01:41:20;;;;;;;872.65;811.58;;;;;;;19.86;43.24;102000.41;692309;28;115078;-62
2022/09/05 01:41:53;;;;;;;898.42;836.67;;;;;;;19.84;43.15;101992.38;693387;28;61486;-62
2022/09/05 01:42:25;;;;;;;859.15;798.33;;;;;;;19.85;43.09;101996.81;691411;28;137817;-61
2022/09/05 01:43:03;;;;;;;857.17;796.67;;;;;;;19.87;43.03;102002.09;691496;28;137690;-62
2022/09/05 01:43:35;;;;;;;888.67;827.15;;;;;;;19.86;43.10;102000.41;691574;28;137826;-62
2022/09/05 01:44:18;;;;;;;880.65;819.42;;;;;;;19.85;43.23;101999.56;691351;28;137635;-62
2022/09/05 01:44:53;;;;;;;880.10;819.00;;;;;;;19.85;42.94;101998.72;692167;28;135934;-61
2022/09/05 01:45:20;;;;;;;843.60;783.45;;;;;;;19.84;43.22;101997.88;691594;28;136015;-62
2022/09/05 01:45:47;;;;;;;888.05;826.72;;;;;;;19.87;43.05;101996.63;691507;28;138157;-61
2022/09/05 01:46:23;;;;;;;873.58;812.53;;;;;;;19.88;43.01;101998.31;691331;28;137742;-61
2022/09/05 01:46:54;;;;;;;860.53;799.93;;;;;;;19.88;42.88;101999.16;690181;28;160622;-61
2022/09/05 01:47:26;;;;;;;905.45;843.28;;;;;;;19.88;42.83;102004.63;690414;28;158951;-61
2022/09/05 01:47:51;;;;;;;862.35;801.75;;;;;;;19.89;42.82;102000.84;690798;28;160616;-61
2022/09/05 01:48:25;;;;;;;856.10;795.67;;;;;;;19.87;42.77;102004.84;691448;28;138594;-61
2022/09/05 01:48:51;;;;;;;910.55;848.40;;;;;;;19.84;42.90;101994.28;691372;28;135935;-61
2022/09/05 01:49:23;;;;;;;899.53;837.63;;;;;;;19.89;42.86;102002.72;691024;28;138141;-61
2022/09/05 01:49:53;;;;;;;852.58;792.25;;;;;;;19.90;42.82;101990.72;691443;28;137524;-61
2022/09/05 01:50:26;;;;;;;893.55;831.95;;;;;;;19.88;42.92;102001.91;692860;28;137430;-60
2022/09/05 01:50:54;;;;;;;879.17;818.00;;;;;;;19.89;42.97;101997.25;693521;28;160637;-61
2022/09/05 01:51:21;;;;;;;920.65;858.08;;;;;;;19.88;42.93;101996.41;694123;28;136745;-61
2022/09/05 01:51:51;;;;;;;887.63;826.20;;;;;;;19.88;42.87;101999.16;693713;28;137345;-60
2022/09/05 01:52:19;;;;;;;861.22;800.65;;;;;;;19.88;42.79;102003.81;689919;28;157254;-61
2022/09/05 01:52:51;;;;;;;930.45;867.75;;;;;;;19.89;42.82;102000.00;691456;28;137922;-61
2022/09/05 01:53:24;;;;;;;875.53;814.33;;;;;;;19.89;42.91;102002.72;691291;28;136004;-60
2022/09/05 01:53:49;;;;;;;860.95;800.47;;;;;;;19.89;42.88;102000.00;691484;28;136404;-61
2022/09/05 01:54:21;;;;;;;894.55;833.15;;;;;;;19.85;42.98;101994.09;692220;28;115327;-60
2022/09/05 01:54:52;;;;;;;872.60;811.90;;;;;;;19.88;42.88;101998.31;691464;28;137548;-61
2022/09/05 01:55:24;;;;;;;857.90;797.50;;;;;;;19.86;42.98;102001.28;690722;28;159059;-61
2022/09/05 01:55:58;;;;;;;893.80;832.33;;;;;;;19.82;43.04;101997.25;691420;28;137468;-62
2022/09/05 01:56:33;;;;;;;877.72;816.67;;;;;;;19.82;42.99;101999.16;691388;28;137301;-61
2022/09/05 01:57:02;;;;;;;897.78;834.92;;;;;;;19.80;43.06;101994.72;684884;28;137844;-61
2022/09/05 01:57:30;;;;;;;949.10;885.03;;;;;;;19.78;42.95;101999.56;690670;28;136563;-61
2022/09/05 01:58:00;;;;;;;937.70;874.65;;;;;;;19.74;42.95;102001.00;691518;28;137784;-61
2022/09/05 01:58:25;;;;;;;892.25;830.65;;;;;;;19.71;43.04;101998.66;691528;28;130459;-61
2022/09/05 01:58:54;;;;;;;889.33;827.80;;;;;;;19.69;43.18;102003.50;693819;28;115162;-61
2022/09/05 01:59:25;;;;;;;933.78;870.90;;;;;;;19.69;43.16;102005.41;694311;28;137960;-61
2022/09/05 01:59:52;;;;;;;921.05;858.67;;;;;;;19.64;43.46;102003.31;694174;28;137676;-61
2022/09/05 02:00:16;;;;;;;899.55;837.72;;;;;;;19.65;43.28;102012.34;693466;28;136357;-60
2022/09/05 02:00:43;;;;;;;934.08;871.22;;;;;;;19.65;43.32;102009.63;690526;28;90325;-61
2022/09/05 02:01:10;;;;;;;946.33;883.00;;;;;;;19.64;43.50;102003.31;688702;28;136323;-61
2022/09/05 02:01:46;;;;;;;942.50;879.38;;;;;;;19.64;43.32;102006.03;691491;28;137901;-61
2022/09/05 02:02:35;;;;;;;914.63;852.30;;;;;;;19.62;43.43;102002.63;693940;28;157890;-61
2022/09/05 02:03:07;;;;;;;953.13;889.65;;;;;;;19.59;43.63;102006.66;694352;28;138414;-62
2022/09/05 02:03:33;;;;;;;943.17;880.10;;;;;;;19.63;43.43;102009.81;694420;28;158867;-61
2022/09/05 02:04:10;;;;;;;939.20;876.13;;;;;;;19.61;43.23;102009.19;693697;28;137914;-61
2022/09/05 02:04:54;;;;;;;923.72;860.40;;;;;;;19.58;43.42;101998.66;694129;28;139045;-61
2022/09/05 02:05:25;;;;;;;940.38;877.28;;;;;;;19.60;43.51;102008.31;694142;28;137686;-61
2022/09/05 02:06:18;;;;;;;910.58;848.55;;;;;;;19.63;43.33;102002.44;694060;28;138082;-61
2022/09/05 02:06:46;;;;;;;941.58;878.47;;;;;;;19.66;43.47;102008.56;694296;28;137267;-61
2022/09/05 02:07:15;;;;;;;922.55;858.67;;;;;;;19.67;43.36;102008.38;689729;28;157764;-61
2022/09/05 02:07:51;;;;;;;939.03;875.72;;;;;;;19.68;43.65;102010.03;694398;28;138291;-61
2022/09/05 02:08:23;;;;;;;943.97;880.85;;;;;;;19.70;43.52;102007.09;693146;28;160282;-61
2022/09/05 02:09:10;;;;;;;886.13;824.58;;;;;;;19.71;43.59;102004.16;688618;28;137423;-61
2022/09/05 02:09:52;;;;;;;943.65;880.58;;;;;;;19.71;43.49;102006.06;688651;28;136117;-61
2022/09/05 02:10:39;;;;;;;907.83;845.85;;;;;;;19.68;43.50;102004.56;688689;28;138052;-61
2022/09/05 02:11:04;;;;;;;942.38;879.28;;;;;;;19.69;43.24;102009.00;688584;28;137360;-62
2022/09/05 02:11:39;;;;;;;924.97;862.60;;;;;;;19.69;43.45;102009.00;689618;28;114953;-62
2022/09/05 02:12:05;;;;;;;933.55;870.65;;;;;;;19.69;43.39;102005.41;687543;28;137566;-62
2022/09/05 02:12:30;;;;;;;941.80;878.58;;;;;;;19.66;43.37;102001.19;688476;28;138094;-62
2022/09/05 02:12:57;;;;;;;951.40;887.95;;;;;;;19.70;43.26;102001.59;689080;28;116082;-62
2022/09/05 02:13:26;;;;;;;949.38;885.95;;;;;;;19.71;43.52;102008.78;691012;28;136418;-62
2022/09/05 02:13:55;;;;;;;933.03;870.13;;;;;;;19.68;43.39;102007.28;693932;28;138427;-62
2022/09/05 02:14:25;;;;;;;892.95;831.33;;;;;;;19.69;43.43;102005.41;694078;28;137876;-62
2022/09/05 02:14:54;;;;;;;900.50;838.75;;;;;;;19.66;43.23;102005.84;694391;28;137600;-62
2022/09/05 02:15:18;;;;;;;913.17;851.03;;;;;;;19.65;43.47;101999.50;694212;28;137503;-62
2022/09/05 02:15:44;;;;;;;934.60;871.83;;;;;;;19.60;43.45;102002.00;694647;28;114917;-62
2022/09/05 02:16:12;;;;;;;942.72;879.55;;;;;;;19.58;43.36;102012.34;692039;28;115056;-62
2022/09/05 02:16:42;;;;;;;937.58;874.65;;;;;;;19.58;43.49;102009.59;688739;28;138209;-62
2022/09/05 02:17:14;;;;;;;937.67;874.42;;;;;;;19.47;43.81;102000.09;687449;28;136318;-62
2022/09/05 02:17:45;;;;;;;941.40;878.20;;;;;;;19.49;43.73;102003.44;688125;28;156130;-62
2022/09/05 02:18:12;;;;;;;904.38;842.50;;;;;;;19.47;43.79;102004.69;688611;28;137346;-62